Time;durP1;ratioP1;P1;durP2;ratioP2;P2;SDS_P1;SDS_P2;PMS_P1;PMS_P2;Temp;Humidity;BMP_temperature;BMP_pressure;BME280_temperature;BME280_humidity;BME280_pressure;Samples;Min_cycle;Max_cycle;Signal;HPM_P1;HPM_P2
2021/10/30 00:02:09;;;;;;;6.40;2.10;;;19.80;80.20;;;;;;5087693;28;20027;-77
2021/10/30 00:04:36;;;;;;;6.70;2.38;;;19.80;80.30;;;;;;5086488;28;20032;-68
2021/10/30 00:07:04;;;;;;;4.10;1.60;;;19.70;80.40;;;;;;5087335;28;20028;-75
2021/10/30 00:09:30;;;;;;;6.78;2.08;;;19.70;80.70;;;;;;5085850;28;20016;-74
2021/10/30 00:11:57;;;;;;;6.03;1.38;;;19.70;80.80;;;;;;5085761;28;20486;-69
2021/10/30 00:14:23;;;;;;;3.60;1.92;;;19.70;81.00;;;;;;5086517;28;20549;-68
2021/10/30 00:16:50;;;;;;;3.67;2.00;;;19.70;81.60;;;;;;5085315;28;20034;-75
2021/10/30 00:19:16;;;;;;;6.72;2.55;;;19.70;81.30;;;;;;5086642;28;20103;-77
2021/10/30 00:21:43;;;;;;;9.95;2.28;;;19.60;81.40;;;;;;5086335;28;20024;-76
2021/10/30 00:24:09;;;;;;;4.70;1.90;;;19.60;81.40;;;;;;5087024;28;20047;-72
2021/10/30 00:26:36;;;;;;;5.78;2.45;;;19.60;81.50;;;;;;5085827;28;20017;-76
2021/10/30 00:29:03;;;;;;;5.50;2.00;;;19.60;81.60;;;;;;5087800;28;20016;-77
2021/10/30 00:31:30;;;;;;;5.90;2.55;;;19.50;81.70;;;;;;5084819;28;20112;-68
2021/10/30 00:33:56;;;;;;;11.23;2.13;;;19.50;81.80;;;;;;5086567;28;20407;-71
2021/10/30 00:36:23;;;;;;;5.93;2.15;;;19.50;81.80;;;;;;5084789;28;20024;-77
2021/10/30 00:38:49;;;;;;;8.80;2.38;;;19.50;81.90;;;;;;5086302;28;20020;-68
2021/10/30 00:41:15;;;;;;;5.70;2.30;;;19.50;82.10;;;;;;5086891;28;20497;-76
2021/10/30 00:43:42;;;;;;;13.82;3.17;;;19.50;82.30;;;;;;5085898;28;20470;-68
2021/10/30 00:46:09;;;;;;;9.80;2.90;;;19.40;82.20;;;;;;5086998;28;20076;-70
2021/10/30 00:48:35;;;;;;;8.88;2.65;;;19.50;82.40;;;;;;5083627;28;20019;-70
2021/10/30 00:51:05;;;;;;;7.45;2.40;;;19.50;82.60;;;;;;5086200;28;20016;-72
2021/10/30 00:53:33;;;;;;;7.07;2.00;;;19.50;82.70;;;;;;5083811;28;20079;-69
2021/10/30 00:56:03;;;;;;;5.15;2.67;;;19.50;82.80;;;;;;5086513;28;20016;-67
2021/10/30 00:58:32;;;;;;;9.43;2.53;;;19.40;83.00;;;;;;5087501;28;20026;-69
2021/10/30 01:01:00;;;;;;;9.77;2.40;;;19.40;83.00;;;;;;5085527;28;20016;-68
2021/10/30 01:03:26;;;;;;;6.15;2.22;;;19.40;83.10;;;;;;5068654;28;20508;-72
2021/10/30 01:05:53;;;;;;;6.68;2.15;;;19.40;83.30;;;;;;5085932;28;20490;-69
2021/10/30 01:08:20;;;;;;;8.52;2.83;;;19.40;83.30;;;;;;5086695;28;20154;-73
2021/10/30 01:10:47;;;;;;;7.75;2.53;;;19.40;83.40;;;;;;5083827;28;20050;-69
2021/10/30 01:13:13;;;;;;;8.32;2.10;;;19.40;83.50;;;;;;5085969;28;20486;-69
2021/10/30 01:15:40;;;;;;;6.50;2.83;;;19.40;83.40;;;;;;5086256;28;20069;-68
2021/10/30 01:18:07;;;;;;;9.75;2.88;;;19.40;83.50;;;;;;5085845;28;20048;-70
2021/10/30 01:20:33;;;;;;;5.25;2.03;;;19.40;83.50;;;;;;5086627;28;20020;-68
2021/10/30 01:23:02;;;;;;;6.07;1.85;;;19.40;83.50;;;;;;5084046;28;20111;-75
2021/10/30 01:25:29;;;;;;;5.55;1.63;;;19.50;83.40;;;;;;5086631;28;20073;-68
2021/10/30 01:27:57;;;;;;;3.53;1.60;;;19.40;83.20;;;;;;5085422;28;20039;-72
2021/10/30 01:30:24;;;;;;;4.35;1.50;;;19.40;83.40;;;;;;5084550;28;20020;-68
2021/10/30 01:32:58;;;;;;;6.63;1.85;;;19.50;83.40;;;;;;5089128;28;20584;-74
2021/10/30 01:35:37;;;;;;;5.95;3.03;;;19.40;83.30;;;;;;5088136;28;20024;-76
2021/10/30 01:38:05;;;;;;;10.05;3.28;;;19.50;83.40;;;;;;5082175;28;20055;-75
2021/10/30 01:40:37;;;;;;;7.70;3.45;;;19.40;83.30;;;;;;5088214;28;20054;-68
2021/10/30 01:43:04;;;;;;;10.77;3.85;;;19.40;83.40;;;;;;5088967;28;20070;-72
2021/10/30 01:45:31;;;;;;;5.18;3.33;;;19.40;83.40;;;;;;5087588;28;20016;-70
2021/10/30 01:47:58;;;;;;;6.53;3.50;;;19.40;83.30;;;;;;5089794;28;20493;-77
2021/10/30 01:50:25;;;;;;;5.97;2.58;;;19.40;83.40;;;;;;5088755;28;20016;-76
2021/10/30 01:52:53;;;;;;;7.15;3.33;;;19.50;83.30;;;;;;5088273;28;20008;-74
2021/10/30 01:55:21;;;;;;;10.18;3.58;;;19.50;83.20;;;;;;5089545;28;20020;-78
2021/10/30 01:57:49;;;;;;;6.82;2.55;;;19.50;83.00;;;;;;5088143;28;20009;-73
2021/10/30 02:00:16;;;;;;;8.40;2.70;;;19.50;82.70;;;;;;5088849;28;20020;-76
2021/10/30 02:02:43;;;;;;;6.63;2.45;;;19.50;82.60;;;;;;5088798;28;20032;-68
2021/10/30 02:05:11;;;;;;;4.70;1.33;;;19.50;82.60;;;;;;5089630;28;20020;-68
2021/10/30 02:07:38;;;;;;;7.53;1.83;;;19.50;82.50;;;;;;5089081;28;20015;-74
2021/10/30 02:10:06;;;;;;;2.55;1.40;;;19.50;82.20;;;;;;5088043;28;20016;-69
2021/10/30 02:12:33;;;;;;;4.45;1.73;;;19.50;81.80;;;;;;5077517;28;20489;-76
2021/10/30 02:15:00;;;;;;;4.38;1.20;;;19.50;81.50;;;;;;5082496;28;20020;-74
2021/10/30 02:17:27;;;;;;;4.28;1.27;;;19.50;81.40;;;;;;5088304;28;20016;-69
2021/10/30 02:19:53;;;;;;;3.78;0.93;;;19.50;81.30;;;;;;5087134;28;20095;-71
2021/10/30 02:22:20;;;;;;;3.92;1.42;;;19.50;80.90;;;;;;5087319;28;20024;-75
2021/10/30 02:24:46;;;;;;;3.15;1.02;;;19.50;80.90;;;;;;5086997;28;20095;-72
2021/10/30 02:27:13;;;;;;;4.07;1.98;;;19.50;80.50;;;;;;5087349;28;20029;-69
2021/10/30 02:29:39;;;;;;;5.07;1.45;;;19.50;80.10;;;;;;5087440;28;20063;-68
2021/10/30 02:32:06;;;;;;;2.58;1.15;;;19.50;80.00;;;;;;5087595;28;20020;-68
2021/10/30 02:34:33;;;;;;;2.50;1.15;;;19.50;79.90;;;;;;5088602;28;20097;-72
2021/10/30 02:37:00;;;;;;;3.13;1.35;;;19.50;79.90;;;;;;5086840;28;20028;-75
2021/10/30 02:39:26;;;;;;;2.65;1.05;;;19.50;79.90;;;;;;5089081;28;20093;-70
2021/10/30 02:41:53;;;;;;;7.15;1.40;;;19.50;79.60;;;;;;5087832;28;20031;-71
2021/10/30 02:44:19;;;;;;;2.45;1.00;;;19.50;79.50;;;;;;5088187;28;20019;-74
2021/10/30 02:46:46;;;;;;;3.00;1.00;;;19.50;79.40;;;;;;5089027;28;20016;-68
2021/10/30 02:49:12;;;;;;;2.08;0.77;;;19.50;79.40;;;;;;5084192;28;20023;-68
2021/10/30 02:51:39;;;;;;;21.90;15.63;;;19.50;79.40;;;;;;5088919;28;20015;-69
2021/10/30 02:54:05;;;;;;;16.02;13.80;;;19.50;79.60;;;;;;5085938;28;20013;-77
2021/10/30 02:56:32;;;;;;;7.47;3.00;;;19.60;79.70;;;;;;5088396;28;20603;-68
2021/10/30 02:58:58;;;;;;;4.00;1.25;;;19.60;79.50;;;;;;5087310;28;20035;-69
2021/10/30 03:01:25;;;;;;;4.13;1.20;;;19.50;79.50;;;;;;5086705;28;20020;-70
2021/10/30 03:03:52;;;;;;;6.32;1.65;;;19.50;79.70;;;;;;5086651;28;20020;-81
2021/10/30 03:06:21;;;;;;;7.82;1.38;;;19.50;79.80;;;;;;5086633;28;20388;-71
2021/10/30 03:08:49;;;;;;;6.35;1.35;;;19.50;80.00;;;;;;5088357;28;20196;-68
2021/10/30 03:11:17;;;;;;;5.32;1.98;;;19.50;80.10;;;;;;5068784;28;20360;-68
2021/10/30 03:13:44;;;;;;;3.72;1.75;;;19.50;80.10;;;;;;5087692;28;20027;-68
2021/10/30 03:16:10;;;;;;;3.20;1.10;;;19.40;79.70;;;;;;5085992;28;20039;-71
2021/10/30 03:18:38;;;;;;;5.53;0.90;;;19.40;79.70;;;;;;5088059;28;20757;-69
2021/10/30 03:21:04;;;;;;;1.88;0.80;;;19.40;79.50;;;;;;5088044;28;20020;-70
2021/10/30 03:23:31;;;;;;;6.05;1.35;;;19.40;79.20;;;;;;5086791;28;20039;-72
2021/10/30 03:25:57;;;;;;;4.97;1.35;;;19.40;78.70;;;;;;5086239;28;20008;-68
2021/10/30 03:28:24;;;;;;;2.33;0.80;;;19.40;78.60;;;;;;5087004;28;20106;-70
2021/10/30 03:30:51;;;;;;;4.60;1.02;;;19.30;78.50;;;;;;5085122;28;20020;-73
2021/10/30 03:33:17;;;;;;;6.50;1.80;;;19.40;78.60;;;;;;5086650;28;20036;-79
2021/10/30 03:35:43;;;;;;;14.55;11.25;;;19.30;78.30;;;;;;5088096;28;20015;-69
2021/10/30 03:38:10;;;;;;;24.77;18.63;;;19.30;78.40;;;;;;5087154;28;20088;-69
2021/10/30 03:40:36;;;;;;;10.00;3.58;;;19.30;78.20;;;;;;5087516;28;20019;-73
2021/10/30 03:43:03;;;;;;;5.35;1.92;;;19.30;78.00;;;;;;5087947;28;20023;-74
2021/10/30 03:45:29;;;;;;;8.02;1.90;;;19.30;78.30;;;;;;5084971;28;20714;-70
2021/10/30 03:47:56;;;;;;;5.97;2.70;;;19.30;78.30;;;;;;5087059;28;20587;-72
2021/10/30 03:50:22;;;;;;;7.38;1.63;;;19.20;78.10;;;;;;5084927;28;20020;-77
2021/10/30 03:52:49;;;;;;;4.63;1.75;;;19.20;78.10;;;;;;5085648;28;20105;-75
2021/10/30 03:55:16;;;;;;;5.43;2.17;;;19.20;78.20;;;;;;5085793;28;20039;-76
2021/10/30 03:57:43;;;;;;;3.03;1.58;;;19.10;78.30;;;;;;5086577;28;20506;-69
2021/10/30 04:00:09;;;;;;;2.90;1.10;;;19.20;78.50;;;;;;5086287;28;20032;-75
2021/10/30 04:02:36;;;;;;;6.15;1.88;;;19.10;78.50;;;;;;5084642;28;20016;-72
2021/10/30 04:05:02;;;;;;;4.95;1.20;;;19.10;78.70;;;;;;5085441;28;20061;-77
2021/10/30 04:07:29;;;;;;;3.20;1.10;;;19.00;78.60;;;;;;5085692;28;20020;-77
2021/10/30 04:09:55;;;;;;;3.00;0.85;;;19.00;78.60;;;;;;5085708;28;20081;-77
2021/10/30 04:12:22;;;;;;;2.85;0.70;;;19.00;78.80;;;;;;5084961;28;20545;-79
2021/10/30 04:14:49;;;;;;;4.47;1.20;;;19.10;78.80;;;;;;5085986;28;20012;-68
2021/10/30 04:17:15;;;;;;;3.58;1.15;;;19.00;78.60;;;;;;5085584;28;20163;-77
2021/10/30 04:19:42;;;;;;;2.03;0.80;;;19.10;78.50;;;;;;5084837;28;20095;-77
2021/10/30 04:22:08;;;;;;;6.80;1.90;;;19.00;78.60;;;;;;5085829;28;20036;-68
2021/10/30 04:24:35;;;;;;;9.20;2.08;;;19.10;78.70;;;;;;5083034;28;20058;-74
2021/10/30 04:27:02;;;;;;;8.85;3.15;;;19.10;78.80;;;;;;5066553;28;20016;-77
2021/10/30 04:29:29;;;;;;;1.95;1.55;;;19.10;79.10;;;;;;5084932;28;20056;-77
2021/10/30 04:31:58;;;;;;;3.28;1.08;;;19.10;79.10;;;;;;5085494;28;20031;-78
2021/10/30 04:34:40;;;;;;;3.80;0.85;;;19.10;79.30;;;;;;5083517;28;20044;-78
2021/10/30 04:37:14;;;;;;;16.92;13.35;;;19.10;79.50;;;;;;5065210;28;20017;-77
2021/10/30 04:39:49;;;;;;;12.90;6.15;;;19.10;79.40;;;;;;5074561;28;20487;-73
2021/10/30 04:42:16;;;;;;;3.83;1.55;;;19.10;79.60;;;;;;5082983;28;20024;-78
2021/10/30 04:44:44;;;;;;;4.32;1.80;;;19.10;79.40;;;;;;5083241;28;20398;-81
2021/10/30 04:47:13;;;;;;;3.72;1.30;;;19.10;79.30;;;;;;5082093;28;20016;-78
2021/10/30 04:49:40;;;;;;;4.82;1.20;;;19.10;79.10;;;;;;5081805;28;20035;-78
2021/10/30 04:52:07;;;;;;;2.53;0.80;;;19.10;79.20;;;;;;5082954;28;20024;-78
2021/10/30 04:54:34;;;;;;;5.97;0.95;;;19.20;79.50;;;;;;5082017;28;20016;-77
2021/10/30 04:57:01;;;;;;;2.33;0.82;;;19.10;79.20;;;;;;5083682;28;20105;-71
2021/10/30 04:59:27;;;;;;;1.38;0.65;;;19.20;79.10;;;;;;5082992;28;20032;-72
2021/10/30 05:01:54;;;;;;;6.18;1.20;;;19.20;79.30;;;;;;5083011;28;20027;-67
2021/10/30 05:04:20;;;;;;;7.70;0.90;;;19.20;79.40;;;;;;5083578;28;20095;-71
2021/10/30 05:06:47;;;;;;;1.77;0.63;;;19.20;79.50;;;;;;5085073;28;20027;-72
2021/10/30 05:09:13;;;;;;;4.28;0.98;;;19.30;79.80;;;;;;5086712;28;20024;-66
2021/10/30 05:11:40;;;;;;;11.48;9.38;;;19.30;79.90;;;;;;5086014;28;20032;-67
2021/10/30 05:14:06;;;;;;;17.52;14.02;;;19.30;80.10;;;;;;5089035;28;20528;-72
2021/10/30 05:16:33;;;;;;;4.13;2.33;;;19.30;80.20;;;;;;5086183;28;20024;-68
2021/10/30 05:18:59;;;;;;;4.70;1.10;;;19.30;80.10;;;;;;5087556;28;20039;-69
2021/10/30 05:21:26;;;;;;;3.90;1.50;;;19.30;80.00;;;;;;5084651;28;20153;-70
2021/10/30 05:23:56;;;;;;;5.45;1.08;;;19.30;80.00;;;;;;5087382;28;20024;-68
2021/10/30 05:26:24;;;;;;;2.67;1.58;;;19.30;80.00;;;;;;5087354;28;20016;-73
2021/10/30 05:28:51;;;;;;;7.40;1.50;;;19.40;80.20;;;;;;5078330;28;20494;-68
2021/10/30 05:31:18;;;;;;;4.15;1.08;;;19.40;80.20;;;;;;5084629;28;20012;-68
2021/10/30 05:33:45;;;;;;;3.80;1.20;;;19.40;80.20;;;;;;5084579;28;20059;-67
2021/10/30 05:36:12;;;;;;;2.88;0.65;;;19.40;79.90;;;;;;5087096;28;20020;-70
2021/10/30 05:38:44;;;;;;;2.05;0.80;;;19.50;78.90;;;;;;5084470;28;20035;-70
2021/10/30 05:41:12;;;;;;;0.73;0.70;;;19.50;78.60;;;;;;5086007;28;20032;-67
2021/10/30 05:43:39;;;;;;;4.45;1.00;;;19.50;78.50;;;;;;5086168;28;20032;-68
2021/10/30 05:46:07;;;;;;;2.40;0.80;;;19.50;78.80;;;;;;5086710;28;20025;-70
2021/10/30 05:48:35;;;;;;;13.55;10.32;;;19.60;79.00;;;;;;5086725;28;20016;-70
2021/10/30 05:51:02;;;;;;;5.25;4.22;;;19.60;79.00;;;;;;5087255;28;20012;-70
2021/10/30 05:53:29;;;;;;;3.17;1.60;;;19.70;78.90;;;;;;5088632;28;20028;-72
2021/10/30 05:55:55;;;;;;;1.92;0.90;;;19.80;78.80;;;;;;5088023;28;20016;-72
2021/10/30 05:58:22;;;;;;;1.15;0.57;;;19.80;78.40;;;;;;5090022;28;20019;-76
2021/10/30 06:00:49;;;;;;;4.88;0.95;;;19.80;77.80;;;;;;5086239;28;21130;-74
2021/10/30 06:03:15;;;;;;;3.42;1.98;;;19.90;77.80;;;;;;5088657;28;20036;-69
2021/10/30 06:05:42;;;;;;;1.90;0.55;;;19.90;77.70;;;;;;5088955;28;20023;-73
2021/10/30 06:08:08;;;;;;;3.45;1.15;;;19.90;77.30;;;;;;5088629;28;20020;-75
2021/10/30 06:10:37;;;;;;;1.33;0.30;;;19.90;77.20;;;;;;5088924;28;20352;-72
2021/10/30 06:13:03;;;;;;;2.45;0.63;;;19.90;77.20;;;;;;5100406;28;20487;-72
2021/10/30 06:15:30;;;;;;;25.15;21.02;;;20.00;77.40;;;;;;5089058;28;20024;-72
2021/10/30 06:17:56;;;;;;;12.27;9.70;;;20.00;77.60;;;;;;5068818;28;20423;-68
2021/10/30 06:20:23;;;;;;;5.40;1.98;;;20.10;77.60;;;;;;5088856;28;20013;-68
2021/10/30 06:22:49;;;;;;;2.75;0.90;;;20.10;77.30;;;;;;5087936;28;20052;-67
2021/10/30 06:25:16;;;;;;;6.25;0.88;;;20.10;77.20;;;;;;5088727;28;20043;-67
2021/10/30 06:27:44;;;;;;;5.30;0.82;;;20.20;77.50;;;;;;5089131;28;20028;-68
2021/10/30 06:30:12;;;;;;;6.72;0.68;;;20.20;77.40;;;;;;5087123;28;20031;-67
2021/10/30 06:32:39;;;;;;;3.85;0.75;;;20.20;76.70;;;;;;5089046;28;20056;-69
2021/10/30 06:35:08;;;;;;;12.63;7.63;;;20.20;76.40;;;;;;5087040;28;20496;-70
2021/10/30 06:37:38;;;;;;;14.18;9.07;;;20.20;76.20;;;;;;5088752;28;20474;-67
2021/10/30 06:40:08;;;;;;;9.77;2.78;;;20.20;76.50;;;;;;5086178;28;20039;-68
2021/10/30 06:42:35;;;;;;;3.08;0.90;;;20.30;76.60;;;;;;5085659;28;20027;-67
2021/10/30 06:45:06;;;;;;;3.55;0.70;;;20.30;76.10;;;;;;5087489;28;20016;-68
2021/10/30 06:47:33;;;;;;;2.47;0.40;;;20.30;75.60;;;;;;5068565;28;20428;-74
2021/10/30 06:50:00;;;;;;;1.92;0.32;;;20.40;74.70;;;;;;5087427;28;20016;-72
2021/10/30 06:52:37;;;;;;;1.58;0.38;;;20.40;73.90;;;;;;5086174;28;20111;-69
2021/10/30 06:55:06;;;;;;;1.10;0.82;;;20.40;73.20;;;;;;5088110;28;20024;-73
2021/10/30 06:57:33;;;;;;;0.93;0.38;;;20.40;72.90;;;;;;5088338;28;20107;-72
2021/10/30 07:00:01;;;;;;;3.00;0.43;;;20.50;73.20;;;;;;5087847;28;20020;-68
2021/10/30 07:02:28;;;;;;;0.93;0.60;;;20.50;73.60;;;;;;5088264;28;20016;-72
2021/10/30 07:04:55;;;;;;;6.15;0.90;;;20.60;73.70;;;;;;5086654;28;20076;-69
2021/10/30 07:07:22;;;;;;;1.58;0.30;;;20.60;73.20;;;;;;5088411;28;20027;-69
2021/10/30 07:09:48;;;;;;;3.70;0.80;;;20.60;73.00;;;;;;5086911;28;20016;-72
2021/10/30 07:12:15;;;;;;;2.38;0.80;;;20.70;73.20;;;;;;5086656;28;20032;-73
2021/10/30 07:14:41;;;;;;;1.00;0.57;;;20.70;73.40;;;;;;5086722;28;20016;-72
2021/10/30 07:17:08;;;;;;;2.63;0.80;;;20.70;73.50;;;;;;5085993;28;20189;-70
2021/10/30 07:19:34;;;;;;;0.73;0.40;;;20.70;73.10;;;;;;5088064;28;20017;-68
2021/10/30 07:22:01;;;;;;;5.70;0.65;;;20.80;73.00;;;;;;5087657;28;20016;-70
2021/10/30 07:24:27;;;;;;;1.58;0.60;;;20.80;73.10;;;;;;5086978;28;20474;-72
2021/10/30 07:26:54;;;;;;;2.05;0.88;;;20.90;73.30;;;;;;5086845;28;20497;-70
2021/10/30 07:29:20;;;;;;;8.52;1.20;;;21.00;72.90;;;;;;5087587;28;20012;-71
2021/10/30 07:31:47;;;;;;;2.60;1.10;;;21.00;72.70;;;;;;5085617;28;20119;-69
2021/10/30 07:34:13;;;;;;;3.80;0.77;;;21.10;72.70;;;;;;5085037;28;20044;-68
2021/10/30 07:36:39;;;;;;;5.03;0.85;;;21.20;72.20;;;;;;5085419;28;20021;-69
2021/10/30 07:39:06;;;;;;;2.97;1.00;;;21.20;71.80;;;;;;5087158;28;20391;-73
2021/10/30 07:41:32;;;;;;;1.40;0.82;;;21.20;71.50;;;;;;5087807;28;20023;-70
2021/10/30 07:43:59;;;;;;;1.55;0.70;;;21.20;71.40;;;;;;5086716;28;20035;-71
2021/10/30 07:46:26;;;;;;;1.52;0.60;;;21.20;71.10;;;;;;5088233;28;20604;-74
2021/10/30 07:48:53;;;;;;;1.08;0.70;;;21.30;70.70;;;;;;5086540;28;20012;-68
2021/10/30 07:51:23;;;;;;;2.25;0.50;;;21.40;69.70;;;;;;5087961;28;20047;-73
2021/10/30 07:53:50;;;;;;;2.03;0.60;;;21.50;69.60;;;;;;5087326;28;20471;-74
2021/10/30 07:56:16;;;;;;;2.33;0.60;;;21.50;69.20;;;;;;5086956;28;20025;-71
2021/10/30 07:58:44;;;;;;;3.17;0.98;;;21.60;68.90;;;;;;5087423;28;20052;-73
2021/10/30 08:01:11;;;;;;;2.33;0.80;;;21.70;68.40;;;;;;5085223;28;20487;-73
2021/10/30 08:03:37;;;;;;;2.38;0.80;;;21.80;68.40;;;;;;5087568;28;20585;-67
2021/10/30 08:06:03;;;;;;;5.95;0.95;;;21.90;68.60;;;;;;5086148;28;20055;-73
2021/10/30 08:08:33;;;;;;;4.85;0.80;;;22.00;67.40;;;;;;5087779;28;20547;-67
2021/10/30 08:11:01;;;;;;;0.85;0.55;;;22.10;67.00;;;;;;5086984;28;20572;-69
2021/10/30 08:13:28;;;;;;;6.13;0.65;;;22.20;66.80;;;;;;5085995;28;20091;-67
2021/10/30 08:15:55;;;;;;;1.45;0.68;;;22.20;66.40;;;;;;5084746;28;20019;-69
2021/10/30 08:18:23;;;;;;;6.78;1.42;;;22.30;66.40;;;;;;5084728;28;20015;-72
2021/10/30 08:20:50;;;;;;;3.97;0.90;;;22.40;66.70;;;;;;5086679;28;20065;-71
2021/10/30 08:23:16;;;;;;;3.42;1.00;;;22.50;66.20;;;;;;5085708;28;20043;-73
2021/10/30 08:25:43;;;;;;;9.40;1.42;;;22.50;65.80;;;;;;5087592;28;20542;-70
2021/10/30 08:28:10;;;;;;;1.88;0.93;;;22.60;65.50;;;;;;5086385;28;20479;-73
2021/10/30 08:30:37;;;;;;;7.65;1.00;;;22.60;65.30;;;;;;5086765;28;20058;-74
2021/10/30 08:33:03;;;;;;;3.53;0.95;;;22.70;65.20;;;;;;5086351;28;20391;-72
2021/10/30 08:35:30;;;;;;;5.53;1.63;;;22.70;64.80;;;;;;5085655;28;20363;-67
2021/10/30 08:37:56;;;;;;;2.38;1.40;;;22.80;64.70;;;;;;5086861;28;20020;-68
2021/10/30 08:40:23;;;;;;;6.28;0.68;;;22.80;64.60;;;;;;5088847;28;20016;-67
2021/10/30 08:42:50;;;;;;;1.95;0.73;;;22.80;64.00;;;;;;5089244;28;20023;-67
2021/10/30 08:45:18;;;;;;;1.10;0.60;;;22.90;64.30;;;;;;5083064;28;20017;-70
2021/10/30 08:47:47;;;;;;;2.60;1.23;;;22.90;63.80;;;;;;5085989;28;20337;-72
2021/10/30 08:50:16;;;;;;;2.75;0.82;;;23.00;63.40;;;;;;5090658;28;20943;-67
2021/10/30 08:52:42;;;;;;;3.13;0.30;;;23.00;63.20;;;;;;5089879;28;20054;-67
2021/10/30 08:55:09;;;;;;;1.77;0.73;;;23.10;62.50;;;;;;5090975;28;20035;-71
2021/10/30 08:57:37;;;;;;;2.45;0.70;;;23.20;62.50;;;;;;5087930;28;20031;-68
2021/10/30 09:00:27;;;;;;;6.60;0.90;;;23.20;62.40;;;;;;5091099;28;20032;-67
2021/10/30 09:02:56;;;;;;;2.42;0.75;;;23.30;61.90;;;;;;5089942;28;20024;-73
2021/10/30 09:05:24;;;;;;;3.40;0.60;;;23.40;62.10;;;;;;5089405;28;20016;-69
2021/10/30 09:07:54;;;;;;;5.00;0.90;;;23.50;62.00;;;;;;5091166;28;20024;-72
2021/10/30 09:10:24;;;;;;;1.80;0.60;;;23.60;61.70;;;;;;5087965;28;20090;-71
2021/10/30 09:12:54;;;;;;;1.95;1.13;;;23.60;61.40;;;;;;5090670;28;20492;-67
2021/10/30 09:15:42;;;;;;;3.80;0.98;;;23.70;61.20;;;;;;5087680;28;20471;-70
2021/10/30 09:18:31;;;;;;;3.10;0.75;;;23.80;61.30;;;;;;5090166;28;20031;-69
2021/10/30 09:21:14;;;;;;;1.38;0.60;;;23.80;59.90;;;;;;5090318;28;20401;-67
2021/10/30 09:23:58;;;;;;;3.10;0.90;;;23.90;60.00;;;;;;5088956;28;20089;-70
2021/10/30 09:26:34;;;;;;;2.85;1.33;;;23.90;60.00;;;;;;5090501;28;20466;-69
2021/10/30 09:29:07;;;;;;;3.40;0.90;;;24.00;60.30;;;;;;5087991;28;20055;-67
2021/10/30 09:31:34;;;;;;;2.85;1.23;;;24.00;59.80;;;;;;5088714;28;20024;-66
2021/10/30 09:34:03;;;;;;;1.27;0.80;;;24.10;59.80;;;;;;5089600;28;20094;-69
2021/10/30 09:36:34;;;;;;;2.58;1.30;;;24.20;59.80;;;;;;5088750;28;20016;-71
2021/10/30 09:39:14;;;;;;;2.70;0.93;;;24.20;59.90;;;;;;5088685;28;20024;-70
2021/10/30 09:41:43;;;;;;;2.00;1.20;;;24.30;59.50;;;;;;5089315;28;20016;-67
2021/10/30 09:44:20;;;;;;;3.50;1.00;;;24.40;59.10;;;;;;5090342;28;20131;-72
2021/10/30 09:46:46;;;;;;;3.55;1.00;;;24.50;58.90;;;;;;5090466;28;20013;-67
2021/10/30 09:49:18;;;;;;;6.47;0.85;;;24.60;59.00;;;;;;5088835;28;20078;-67
2021/10/30 09:51:54;;;;;;;3.83;1.27;;;24.60;58.70;;;;;;5087564;28;20028;-71
2021/10/30 09:54:37;;;;;;;2.08;0.95;;;24.70;58.10;;;;;;5087304;28;20013;-68
2021/10/30 09:57:07;;;;;;;1.70;1.10;;;24.80;57.90;;;;;;5088429;28;20107;-67
2021/10/30 09:59:40;;;;;;;1.58;0.73;;;24.80;57.90;;;;;;5089741;28;20375;-71
2021/10/30 10:02:10;;;;;;;2.60;0.95;;;24.90;58.00;;;;;;5089515;28;20020;-69
2021/10/30 10:04:40;;;;;;;2.00;1.02;;;24.90;58.00;;;;;;5088709;28;20360;-68
2021/10/30 10:07:11;;;;;;;6.70;1.15;;;25.00;57.80;;;;;;5087214;28;20391;-71
2021/10/30 10:09:38;;;;;;;1.63;0.90;;;25.00;57.60;;;;;;5089203;28;20013;-68
2021/10/30 10:12:05;;;;;;;4.50;1.13;;;25.00;57.20;;;;;;5087635;28;20368;-72
2021/10/30 10:14:36;;;;;;;3.60;1.05;;;25.20;57.00;;;;;;5089515;28;20750;-63
2021/10/30 10:17:03;;;;;;;20.45;2.00;;;25.20;57.20;;;;;;5089528;28;20066;-67
2021/10/30 10:19:29;;;;;;;23.92;1.90;;;25.10;57.50;;;;;;5087617;28;20467;-65
2021/10/30 10:21:56;;;;;;;8.45;2.78;;;25.00;57.70;;;;;;5087607;28;20428;-66
2021/10/30 10:24:49;;;;;;;8.05;2.40;;;25.00;58.00;;;;;;5087241;28;20111;-68
2021/10/30 10:27:16;;;;;;;12.60;1.90;;;24.90;58.50;;;;;;5086716;28;20479;-64
2021/10/30 10:29:45;;;;;;;9.00;2.08;;;24.90;58.70;;;;;;5088988;28;20083;-63
2021/10/30 10:32:24;;;;;;;5.43;1.95;;;24.90;58.90;;;;;;5088958;28;20016;-73
2021/10/30 10:34:52;;;;;;;8.38;2.58;;;24.80;58.90;;;;;;5087560;28;20479;-66
2021/10/30 10:37:23;;;;;;;7.78;1.42;;;24.90;59.10;;;;;;5088288;28;20032;-72
2021/10/30 10:39:57;;;;;;;4.93;1.45;;;24.90;58.80;;;;;;5088595;28;20016;-67
2021/10/30 10:42:36;;;;;;;4.90;4.30;;;24.90;58.70;;;;;;5088828;28;20028;-65
2021/10/30 10:45:13;;;;;;;9.88;6.43;;;25.00;58.60;;;;;;5087060;28;20171;-64
2021/10/30 10:47:40;;;;;;;7.65;5.70;;;24.90;58.50;;;;;;5087892;28;20138;-66
2021/10/30 10:50:16;;;;;;;8.48;2.97;;;25.00;58.60;;;;;;5086245;28;20424;-72
2021/10/30 10:53:06;;;;;;;3.00;2.72;;;25.10;58.60;;;;;;5086951;28;20081;-70
2021/10/30 10:55:36;;;;;;;4.93;2.50;;;25.10;58.70;;;;;;5087900;28;20016;-72
2021/10/30 10:58:08;;;;;;;5.53;2.22;;;25.20;58.60;;;;;;5087331;28;20574;-70
2021/10/30 11:00:35;;;;;;;3.97;1.80;;;25.30;59.00;;;;;;5087496;28;20023;-72
2021/10/30 11:03:02;;;;;;;6.20;3.03;;;25.30;58.20;;;;;;5084105;28;20478;-67
2021/10/30 11:05:32;;;;;;;4.82;2.20;;;25.40;58.00;;;;;;5088410;28;20103;-68
2021/10/30 11:08:21;;;;;;;2.47;2.03;;;25.40;57.70;;;;;;5087055;28;20020;-71
2021/10/30 11:10:48;;;;;;;3.35;2.55;;;25.50;57.60;;;;;;5086492;28;20414;-68
2021/10/30 11:13:22;;;;;;;5.72;3.13;;;25.50;57.40;;;;;;5088381;28;20028;-75
2021/10/30 11:15:56;;;;;;;5.97;2.70;;;25.60;57.40;;;;;;5087429;28;20015;-70
2021/10/30 11:18:26;;;;;;;2.75;2.10;;;25.60;57.20;;;;;;5086424;28;20027;-71
2021/10/30 11:21:17;;;;;;;3.40;1.75;;;25.70;57.10;;;;;;5086708;28;20598;-72
2021/10/30 11:23:47;;;;;;;14.52;10.45;;;25.80;56.90;;;;;;5087494;28;20439;-74
2021/10/30 11:26:21;;;;;;;5.43;2.85;;;25.80;56.70;;;;;;5086190;28;20449;-72
2021/10/30 11:28:47;;;;;;;;;;;25.90;56.70;;;;;;5087851;28;20364;-67
2021/10/30 11:31:22;;;;;;;6.90;5.57;;;25.90;56.50;;;;;;5087776;28;20428;-70
2021/10/30 11:33:59;;;;;;;7.88;4.10;;;25.90;56.50;;;;;;5085620;28;20054;-74
2021/10/30 11:36:26;;;;;;;25.65;23.10;;;26.00;56.30;;;;;;5087426;28;20093;-73
2021/10/30 11:38:55;;;;;;;7.60;5.10;;;26.00;56.20;;;;;;5087331;28;20023;-74
2021/10/30 11:41:25;;;;;;;7.78;6.53;;;26.10;56.00;;;;;;5085405;28;20122;-70
2021/10/30 11:43:58;;;;;;;11.85;8.80;;;26.10;56.50;;;;;;5087444;28;20032;-74
2021/10/30 11:46:25;;;;;;;11.50;5.78;;;26.10;55.90;;;;;;5085414;28;20020;-65
2021/10/30 11:48:57;;;;;;;7.60;4.85;;;26.10;55.60;;;;;;5086131;28;20048;-70
2021/10/30 11:51:36;;;;;;;45.67;32.92;;;26.20;55.80;;;;;;5084700;28;20023;-68
2021/10/30 11:54:05;;;;;;;48.35;27.52;;;26.20;55.60;;;;;;5087108;28;20027;-68
2021/10/30 11:56:32;;;;;;;33.13;18.85;;;26.30;55.60;;;;;;5085381;28;20371;-70
2021/10/30 11:59:02;;;;;;;21.35;12.43;;;26.30;55.50;;;;;;5085883;28;20091;-65
2021/10/30 12:01:34;;;;;;;19.60;11.93;;;26.30;55.40;;;;;;5086458;28;20471;-67
2021/10/30 12:04:20;;;;;;;49.30;42.30;;;26.40;55.90;;;;;;5085936;28;20016;-66
2021/10/30 12:06:52;;;;;;;26.77;19.13;;;26.40;55.10;;;;;;5086678;28;20019;-73
2021/10/30 12:09:31;;;;;;;14.57;9.57;;;26.50;55.10;;;;;;5087094;28;20020;-70
2021/10/30 12:11:59;;;;;;;12.35;7.13;;;26.50;55.00;;;;;;5085311;28;20479;-70
2021/10/30 12:14:39;;;;;;;12.43;6.93;;;26.50;54.90;;;;;;5086272;28;20073;-68
2021/10/30 12:17:10;;;;;;;9.65;6.20;;;26.50;54.90;;;;;;5085774;28;20028;-71
2021/10/30 12:19:40;;;;;;;7.57;4.43;;;26.50;55.00;;;;;;5086518;28;20035;-76
2021/10/30 12:22:19;;;;;;;15.43;9.63;;;26.50;55.00;;;;;;5085960;28;20471;-73
2021/10/30 12:24:45;;;;;;;7.10;5.45;;;26.50;55.00;;;;;;5081892;28;20047;-69
2021/10/30 12:27:12;;;;;;;8.77;5.75;;;26.50;54.80;;;;;;5086263;28;20031;-72
2021/10/30 12:29:45;;;;;;;7.25;3.28;;;26.50;54.90;;;;;;5084158;28;20020;-70
2021/10/30 12:32:17;;;;;;;6.78;3.03;;;26.60;54.90;;;;;;5084291;28;20074;-69
2021/10/30 12:34:58;;;;;;;6.47;2.03;;;26.60;54.90;;;;;;5085292;28;20040;-73
2021/10/30 12:37:32;;;;;;;3.63;1.63;;;26.50;54.80;;;;;;5087103;28;20048;-67
2021/10/30 12:40:31;;;;;;;3.53;1.98;;;26.60;54.90;;;;;;5086594;28;20028;-69
2021/10/30 12:43:09;;;;;;;2.63;1.65;;;26.60;54.70;;;;;;5082863;28;20025;-72
2021/10/30 12:45:48;;;;;;;2.70;0.98;;;26.60;54.60;;;;;;5085420;28;20163;-73
2021/10/30 12:48:16;;;;;;;3.78;1.30;;;26.60;54.60;;;;;;5086064;28;20028;-69
2021/10/30 12:50:55;;;;;;;2.75;1.10;;;26.50;54.50;;;;;;5086440;28;20004;-69
2021/10/30 12:53:34;;;;;;;5.90;1.63;;;26.50;54.50;;;;;;5086545;28;20099;-67
2021/10/30 12:56:10;;;;;;;4.32;1.52;;;26.50;54.40;;;;;;5084878;28;20055;-66